Krymsk — A8CE4 — position and weather

sailwx.info

Track history (hours):
 
Tides and Currents Weather Stations Pressure Air Temp Water Temp Dewpoint Dewpoint Depression Visibility Wind Speed Wind Dir Waves Ship Positions

Krymsk

Last reported at 2016-Jul-09 15:06 UTC. Time now 2016-Jul-27 15:22 UTC.
Position N 29°23' W 094°48'.
Warning: this ship's position is 18 days out of date.

Length 250 m; draft 8.5 m.

Type: Ship. MMSI: 636011914.

Date/timePositionNaut miles runAvg speedWind from/ knotsBaromVisibWave heightAir tempDewpointWater temp
2016-Jul-09 15:06N 29°23' W 094°48'610.6
2016-Jul-09 14:31N 29°28' W 094°51'1010.5
2016-Jul-09 13:33N 29°37' W 094°57'8 8.1
2016-Jul-09 12:33N 29°44' W 095°02'4 4.4
2016-Jul-09 11:33N 29°44' W 095°07'0 0.0
2016-Jul-07 16:07N 29°44' W 095°08'0 0.5
2016-Jul-07 15:33N 29°44' W 095°07'5 4.7
2016-Jul-07 14:33N 29°44' W 095°02'7 7.4
2016-Jul-07 13:33N 29°37' W 094°58'1110.4
2016-Jul-07 12:30N 29°28' W 094°51'  
Track history (hours):
 
Tides and Currents Weather Stations Pressure Air Temp Water Temp Dewpoint Dewpoint Depression Visibility Wind Speed Wind Dir Waves Ship Positions

Krymsk

Last reported at 2016-Jul-09 15:06 UTC. Time now 2016-Jul-27 15:22 UTC.
Position N 29°23' W 094°48'.
Warning: this ship's position is 18 days out of date.

Length 250 m; draft 8.5 m.

Type: Ship. MMSI: 636011914.

Date/timePositionNaut miles runAvg speedWind from/ knotsBaromVisibWave heightAir tempDewpointWater temp
2016-Jul-09 15:06N 29°23' W 094°48'610.6
2016-Jul-09 14:31N 29°28' W 094°51'1010.5
2016-Jul-09 13:33N 29°37' W 094°57'8 8.1
2016-Jul-09 12:33N 29°44' W 095°02'4 4.4
2016-Jul-09 11:33N 29°44' W 095°07'0 0.0
2016-Jul-07 16:07N 29°44' W 095°08'0 0.5
2016-Jul-07 15:33N 29°44' W 095°07'5 4.7
2016-Jul-07 14:33N 29°44' W 095°02'7 7.4
2016-Jul-07 13:33N 29°37' W 094°58'1110.4
2016-Jul-07 12:30N 29°28' W 094°51'  

Dump ship's entire track history